sensor_id;sensor_type;location;lat;lon;timestamp;temperature;humidity
3492;DHT22;1760;52.480;13.422;2024-01-07T00:00:45;1.20;99.90
3492;DHT22;1760;52.480;13.422;2024-01-07T00:03:14;1.30;99.90
3492;DHT22;1760;52.480;13.422;2024-01-07T00:05:42;1.30;99.90
3492;DHT22;1760;52.480;13.422;2024-01-07T00:08:08;1.30;99.90
3492;DHT22;1760;52.480;13.422;2024-01-07T00:10:35;1.30;99.90
3492;DHT22;1760;52.480;13.422;2024-01-07T00:13:02;1.30;99.90
3492;DHT22;1760;52.480;13.422;2024-01-07T00:15:29;1.30;99.90
3492;DHT22;1760;52.480;13.422;2024-01-07T00:17:56;1.30;99.90
3492;DHT22;1760;52.480;13.422;2024-01-07T00:20:25;1.30;99.90
3492;DHT22;1760;52.480;13.422;2024-01-07T00:22:51;1.30;99.90
3492;DHT22;1760;52.480;13.422;2024-01-07T00:25:18;1.20;99.90
3492;DHT22;1760;52.480;13.422;2024-01-07T00:27:45;1.10;99.90
3492;DHT22;1760;52.480;13.422;2024-01-07T00:30:12;1.10;99.90
3492;DHT22;1760;52.480;13.422;2024-01-07T00:32:39;1.10;99.90
3492;DHT22;1760;52.480;13.422;2024-01-07T00:35:06;1.10;99.90
3492;DHT22;1760;52.480;13.422;2024-01-07T00:37:35;1.00;99.90
3492;DHT22;1760;52.480;13.422;2024-01-07T00:40:01;1.00;99.90
3492;DHT22;1760;52.480;13.422;2024-01-07T00:42:28;1.00;99.90
3492;DHT22;1760;52.480;13.422;2024-01-07T00:44:55;1.00;99.90
3492;DHT22;1760;52.480;13.422;2024-01-07T00:47:22;1.10;99.90
3492;DHT22;1760;52.480;13.422;2024-01-07T00:49:49;1.00;99.90
3492;DHT22;1760;52.480;13.422;2024-01-07T00:52:16;1.00;99.90
3492;DHT22;1760;52.480;13.422;2024-01-07T00:54:44;1.00;99.90
3492;DHT22;1760;52.480;13.422;2024-01-07T00:57:11;0.90;99.90
3492;DHT22;1760;52.480;13.422;2024-01-07T00:59:38;0.90;99.90
3492;DHT22;1760;52.480;13.422;2024-01-07T01:02:05;0.90;99.90
3492;DHT22;1760;52.480;13.422;2024-01-07T01:04:32;0.90;99.90
3492;DHT22;1760;52.480;13.422;2024-01-07T01:06:59;0.80;99.90
3492;DHT22;1760;52.480;13.422;2024-01-07T01:09:28;0.80;99.90
3492;DHT22;1760;52.480;13.422;2024-01-07T01:11:56;0.80;99.90
3492;DHT22;1760;52.480;13.422;2024-01-07T01:14:23;0.80;99.90
3492;DHT22;1760;52.480;13.422;2024-01-07T01:16:49;0.80;99.90
3492;DHT22;1760;52.480;13.422;2024-01-07T01:19:17;0.80;99.90
3492;DHT22;1760;52.480;13.422;2024-01-07T01:21:44;0.80;99.90
3492;DHT22;1760;52.480;13.422;2024-01-07T01:24:11;0.70;99.90
3492;DHT22;1760;52.480;13.422;2024-01-07T01:26:38;0.70;99.90
3492;DHT22;1760;52.480;13.422;2024-01-07T01:29:06;0.70;99.90
3492;DHT22;1760;52.480;13.422;2024-01-07T01:31:33;0.60;99.90
3492;DHT22;1760;52.480;13.422;2024-01-07T01:34:00;0.60;99.90
3492;DHT22;1760;52.480;13.422;2024-01-07T01:36:27;0.60;99.90
3492;DHT22;1760;52.480;13.422;2024-01-07T01:38:54;0.60;99.90
3492;DHT22;1760;52.480;13.422;2024-01-07T01:41:21;0.60;99.90
3492;DHT22;1760;52.480;13.422;2024-01-07T01:43:48;0.60;99.90
3492;DHT22;1760;52.480;13.422;2024-01-07T01:46:16;0.50;99.90
3492;DHT22;1760;52.480;13.422;2024-01-07T01:48:43;0.50;99.90
3492;DHT22;1760;52.480;13.422;2024-01-07T01:51:10;0.40;99.90
3492;DHT22;1760;52.480;13.422;2024-01-07T01:53:37;0.40;99.90
3492;DHT22;1760;52.480;13.422;2024-01-07T01:56:07;0.40;99.90
3492;DHT22;1760;52.480;13.422;2024-01-07T01:58:34;1.10;99.90
3492;DHT22;1760;52.480;13.422;2024-01-07T02:01:04;0.40;99.90
3492;DHT22;1760;52.480;13.422;2024-01-07T02:03:32;1.30;99.90
3492;DHT22;1760;52.480;13.422;2024-01-07T02:05:59;0.40;99.90
3492;DHT22;1760;52.480;13.422;2024-01-07T02:08:26;0.50;99.90
3492;DHT22;1760;52.480;13.422;2024-01-07T02:10:53;0.30;99.90
3492;DHT22;1760;52.480;13.422;2024-01-07T02:13:20;0.90;99.90
3492;DHT22;1760;52.480;13.422;2024-01-07T02:15:47;0.30;99.90
3492;DHT22;1760;52.480;13.422;2024-01-07T02:18:14;0.30;99.90
3492;DHT22;1760;52.480;13.422;2024-01-07T02:20:46;0.30;99.90
3492;DHT22;1760;52.480;13.422;2024-01-07T02:23:13;0.30;99.90
3492;DHT22;1760;52.480;13.422;2024-01-07T02:25:41;0.20;99.90
3492;DHT22;1760;52.480;13.422;2024-01-07T02:28:08;0.20;99.90
3492;DHT22;1760;52.480;13.422;2024-01-07T02:30:35;0.20;99.90
3492;DHT22;1760;52.480;13.422;2024-01-07T02:33:04;0.20;99.90
3492;DHT22;1760;52.480;13.422;2024-01-07T02:35:31;0.20;99.90
3492;DHT22;1760;52.480;13.422;2024-01-07T02:37:58;0.20;99.90
3492;DHT22;1760;52.480;13.422;2024-01-07T02:40:25;0.20;99.90
3492;DHT22;1760;52.480;13.422;2024-01-07T02:42:53;0.10;99.90
3492;DHT22;1760;52.480;13.422;2024-01-07T02:45:21;0.10;99.90
3492;DHT22;1760;52.480;13.422;2024-01-07T02:47:48;0.00;99.90
3492;DHT22;1760;52.480;13.422;2024-01-07T02:50:15;0.00;99.90
3492;DHT22;1760;52.480;13.422;2024-01-07T02:52:44;0.00;99.90
3492;DHT22;1760;52.480;13.422;2024-01-07T02:55:11;-0.10;99.90
3492;DHT22;1760;52.480;13.422;2024-01-07T02:57:38;-0.10;99.90
3492;DHT22;1760;52.480;13.422;2024-01-07T03:00:07;-0.20;99.90
3492;DHT22;1760;52.480;13.422;2024-01-07T03:02:34;-0.20;99.90
3492;DHT22;1760;52.480;13.422;2024-01-07T03:05:02;-0.20;99.90
3492;DHT22;1760;52.480;13.422;2024-01-07T03:07:29;-0.40;99.90
3492;DHT22;1760;52.480;13.422;2024-01-07T03:09:56;-0.40;99.90
3492;DHT22;1760;52.480;13.422;2024-01-07T03:12:22;-0.40;99.90
3492;DHT22;1760;52.480;13.422;2024-01-07T03:14:49;-0.40;99.90
3492;DHT22;1760;52.480;13.422;2024-01-07T03:17:17;-0.40;99.90
3492;DHT22;1760;52.480;13.422;2024-01-07T03:19:44;-0.40;99.90
3492;DHT22;1760;52.480;13.422;2024-01-07T03:22:11;-0.30;99.90
3492;DHT22;1760;52.480;13.422;2024-01-07T03:24:38;-0.50;99.90
3492;DHT22;1760;52.480;13.422;2024-01-07T03:27:05;-0.50;99.90
3492;DHT22;1760;52.480;13.422;2024-01-07T03:29:31;-0.50;99.90
3492;DHT22;1760;52.480;13.422;2024-01-07T03:31:59;-0.50;99.90
3492;DHT22;1760;52.480;13.422;2024-01-07T03:34:27;-0.50;99.90
3492;DHT22;1760;52.480;13.422;2024-01-07T03:36:54;-0.50;99.90
3492;DHT22;1760;52.480;13.422;2024-01-07T03:39:20;-0.50;99.90
3492;DHT22;1760;52.480;13.422;2024-01-07T03:41:47;-0.60;99.90
3492;DHT22;1760;52.480;13.422;2024-01-07T03:44:14;-0.60;99.90
3492;DHT22;1760;52.480;13.422;2024-01-07T03:46:41;-0.60;99.90
3492;DHT22;1760;52.480;13.422;2024-01-07T03:49:08;-0.60;99.90
3492;DHT22;1760;52.480;13.422;2024-01-07T03:51:36;-0.60;99.90
3492;DHT22;1760;52.480;13.422;2024-01-07T03:54:03;-0.60;99.90
3492;DHT22;1760;52.480;13.422;2024-01-07T03:56:30;-0.70;99.90
3492;DHT22;1760;52.480;13.422;2024-01-07T03:58:57;-0.70;99.90
3492;DHT22;1760;52.480;13.422;2024-01-07T04:01:24;-0.70;99.90
3492;DHT22;1760;52.480;13.422;2024-01-07T04:03:50;-0.70;99.90
3492;DHT22;1760;52.480;13.422;2024-01-07T04:06:17;-0.70;99.90
3492;DHT22;1760;52.480;13.422;2024-01-07T04:08:48;-0.70;99.90
3492;DHT22;1760;52.480;13.422;2024-01-07T04:11:15;-0.70;99.90
3492;DHT22;1760;52.480;13.422;2024-01-07T04:13:41;-0.70;99.90
3492;DHT22;1760;52.480;13.422;2024-01-07T04:16:15;-0.70;99.90
3492;DHT22;1760;52.480;13.422;2024-01-07T04:18:43;-0.70;99.90
3492;DHT22;1760;52.480;13.422;2024-01-07T04:21:09;-0.70;99.90
3492;DHT22;1760;52.480;13.422;2024-01-07T04:23:38;-0.80;99.90
3492;DHT22;1760;52.480;13.422;2024-01-07T04:26:06;-0.80;99.90
3492;DHT22;1760;52.480;13.422;2024-01-07T04:28:33;-0.80;99.90
3492;DHT22;1760;52.480;13.422;2024-01-07T04:31:00;-0.80;99.90
3492;DHT22;1760;52.480;13.422;2024-01-07T04:33:27;-0.70;99.90
3492;DHT22;1760;52.480;13.422;2024-01-07T04:35:53;-0.70;99.90
3492;DHT22;1760;52.480;13.422;2024-01-07T04:38:23;-0.80;99.90
3492;DHT22;1760;52.480;13.422;2024-01-07T04:40:50;-0.80;99.90
3492;DHT22;1760;52.480;13.422;2024-01-07T04:43:19;-0.80;99.90
3492;DHT22;1760;52.480;13.422;2024-01-07T04:45:46;-0.70;99.90
3492;DHT22;1760;52.480;13.422;2024-01-07T04:48:12;-0.70;99.90
3492;DHT22;1760;52.480;13.422;2024-01-07T04:50:40;-0.80;99.90
3492;DHT22;1760;52.480;13.422;2024-01-07T04:53:07;-0.80;99.90
3492;DHT22;1760;52.480;13.422;2024-01-07T04:55:34;-0.80;99.90
3492;DHT22;1760;52.480;13.422;2024-01-07T04:58:03;-0.80;99.90
3492;DHT22;1760;52.480;13.422;2024-01-07T05:00:31;-0.80;99.90
3492;DHT22;1760;52.480;13.422;2024-01-07T05:02:58;-0.90;99.90
3492;DHT22;1760;52.480;13.422;2024-01-07T05:05:26;-0.90;99.90
3492;DHT22;1760;52.480;13.422;2024-01-07T05:07:53;-0.90;99.90
3492;DHT22;1760;52.480;13.422;2024-01-07T05:10:20;-0.90;99.90
3492;DHT22;1760;52.480;13.422;2024-01-07T05:12:47;-0.90;99.90
3492;DHT22;1760;52.480;13.422;2024-01-07T05:15:13;-0.90;99.90
3492;DHT22;1760;52.480;13.422;2024-01-07T05:17:42;-1.00;99.90
3492;DHT22;1760;52.480;13.422;2024-01-07T05:20:10;-0.90;99.90
3492;DHT22;1760;52.480;13.422;2024-01-07T05:22:37;-0.90;99.90
3492;DHT22;1760;52.480;13.422;2024-01-07T05:25:04;-0.90;99.90
3492;DHT22;1760;52.480;13.422;2024-01-07T05:27:31;-1.00;99.90
3492;DHT22;1760;52.480;13.422;2024-01-07T05:29:58;-0.90;99.90
3492;DHT22;1760;52.480;13.422;2024-01-07T05:32:25;-0.90;99.90
3492;DHT22;1760;52.480;13.422;2024-01-07T05:34:53;-1.00;99.90
3492;DHT22;1760;52.480;13.422;2024-01-07T05:37:20;-1.00;99.90
3492;DHT22;1760;52.480;13.422;2024-01-07T05:39:47;-1.00;99.90
3492;DHT22;1760;52.480;13.422;2024-01-07T05:42:13;-1.00;99.90
3492;DHT22;1760;52.480;13.422;2024-01-07T05:44:40;-1.00;99.90
3492;DHT22;1760;52.480;13.422;2024-01-07T05:47:07;-1.00;99.90
3492;DHT22;1760;52.480;13.422;2024-01-07T05:49:34;-1.00;99.90
3492;DHT22;1760;52.480;13.422;2024-01-07T05:52:02;-1.00;99.90
3492;DHT22;1760;52.480;13.422;2024-01-07T05:54:29;-1.00;99.90
3492;DHT22;1760;52.480;13.422;2024-01-07T05:56:56;-1.00;99.90
3492;DHT22;1760;52.480;13.422;2024-01-07T05:59:23;-1.00;99.90
3492;DHT22;1760;52.480;13.422;2024-01-07T06:01:50;-1.00;99.90
3492;DHT22;1760;52.480;13.422;2024-01-07T06:04:16;-1.00;99.90
3492;DHT22;1760;52.480;13.422;2024-01-07T06:06:43;-1.00;99.90
3492;DHT22;1760;52.480;13.422;2024-01-07T06:09:11;-1.00;99.90
3492;DHT22;1760;52.480;13.422;2024-01-07T06:11:38;-1.00;99.90
3492;DHT22;1760;52.480;13.422;2024-01-07T06:14:05;-0.90;99.90
3492;DHT22;1760;52.480;13.422;2024-01-07T06:16:32;-0.80;99.90
3492;DHT22;1760;52.480;13.422;2024-01-07T06:19:00;-0.80;99.90
3492;DHT22;1760;52.480;13.422;2024-01-07T06:21:26;-0.80;99.90
3492;DHT22;1760;52.480;13.422;2024-01-07T06:23:53;-0.70;99.90
3492;DHT22;1760;52.480;13.422;2024-01-07T06:26:21;-0.70;99.90
3492;DHT22;1760;52.480;13.422;2024-01-07T06:28:48;-0.70;99.90
3492;DHT22;1760;52.480;13.422;2024-01-07T06:31:15;-0.70;99.90
3492;DHT22;1760;52.480;13.422;2024-01-07T06:33:42;-0.70;99.90
3492;DHT22;1760;52.480;13.422;2024-01-07T06:36:09;-0.70;99.90
3492;DHT22;1760;52.480;13.422;2024-01-07T06:38:36;-0.70;99.90
3492;DHT22;1760;52.480;13.422;2024-01-07T06:41:03;-0.70;99.90
3492;DHT22;1760;52.480;13.422;2024-01-07T06:43:32;-0.70;99.90
3492;DHT22;1760;52.480;13.422;2024-01-07T06:45:59;-0.60;99.90
3492;DHT22;1760;52.480;13.422;2024-01-07T06:48:26;-0.60;99.90
3492;DHT22;1760;52.480;13.422;2024-01-07T06:50:53;-0.50;99.90
3492;DHT22;1760;52.480;13.422;2024-01-07T06:53:20;-0.50;99.90
3492;DHT22;1760;52.480;13.422;2024-01-07T06:55:47;-0.50;99.90
3492;DHT22;1760;52.480;13.422;2024-01-07T06:58:13;-0.50;99.90
3492;DHT22;1760;52.480;13.422;2024-01-07T07:00:42;-0.50;99.90
3492;DHT22;1760;52.480;13.422;2024-01-07T07:03:09;-0.50;99.90
3492;DHT22;1760;52.480;13.422;2024-01-07T07:05:37;-0.50;99.90
3492;DHT22;1760;52.480;13.422;2024-01-07T07:08:04;-0.40;99.90
3492;DHT22;1760;52.480;13.422;2024-01-07T07:10:31;-0.40;99.90
3492;DHT22;1760;52.480;13.422;2024-01-07T07:12:58;-0.40;99.90
3492;DHT22;1760;52.480;13.422;2024-01-07T07:15:25;-0.40;99.90
3492;DHT22;1760;52.480;13.422;2024-01-07T07:17:55;-0.40;99.90
3492;DHT22;1760;52.480;13.422;2024-01-07T07:20:22;-0.40;99.90
3492;DHT22;1760;52.480;13.422;2024-01-07T07:22:49;-0.40;99.90
3492;DHT22;1760;52.480;13.422;2024-01-07T07:25:16;-0.30;99.90
3492;DHT22;1760;52.480;13.422;2024-01-07T07:27:43;0.80;99.90
3492;DHT22;1760;52.480;13.422;2024-01-07T07:30:10;-0.30;99.90
3492;DHT22;1760;52.480;13.422;2024-01-07T07:32:39;-0.90;99.90
3492;DHT22;1760;52.480;13.422;2024-01-07T07:35:08;-0.30;99.90
3492;DHT22;1760;52.480;13.422;2024-01-07T07:37:35;-0.20;99.90
3492;DHT22;1760;52.480;13.422;2024-01-07T07:40:02;-0.20;99.90
3492;DHT22;1760;52.480;13.422;2024-01-07T07:42:29;-0.20;99.90
3492;DHT22;1760;52.480;13.422;2024-01-07T07:44:56;-0.20;99.90
3492;DHT22;1760;52.480;13.422;2024-01-07T07:47:23;-0.10;99.90
3492;DHT22;1760;52.480;13.422;2024-01-07T07:49:49;-0.10;99.90
3492;DHT22;1760;52.480;13.422;2024-01-07T07:52:18;-0.10;99.90
3492;DHT22;1760;52.480;13.422;2024-01-07T07:54:47;0.00;99.90
3492;DHT22;1760;52.480;13.422;2024-01-07T07:57:15;0.00;99.90
3492;DHT22;1760;52.480;13.422;2024-01-07T07:59:41;0.00;99.90
3492;DHT22;1760;52.480;13.422;2024-01-07T08:02:08;0.00;99.90
3492;DHT22;1760;52.480;13.422;2024-01-07T08:04:35;0.00;99.90
3492;DHT22;1760;52.480;13.422;2024-01-07T08:07:02;0.00;99.90
3492;DHT22;1760;52.480;13.422;2024-01-07T08:09:31;0.00;99.90
3492;DHT22;1760;52.480;13.422;2024-01-07T08:11:58;0.00;99.90
3492;DHT22;1760;52.480;13.422;2024-01-07T08:14:25;0.10;99.90
3492;DHT22;1760;52.480;13.422;2024-01-07T08:16:52;0.10;99.90
3492;DHT22;1760;52.480;13.422;2024-01-07T08:19:19;0.10;99.90
3492;DHT22;1760;52.480;13.422;2024-01-07T08:21:46;0.10;99.90
3492;DHT22;1760;52.480;13.422;2024-01-07T08:24:13;0.10;99.90
3492;DHT22;1760;52.480;13.422;2024-01-07T08:26:41;0.10;99.90
3492;DHT22;1760;52.480;13.422;2024-01-07T08:29:11;0.10;99.90
3492;DHT22;1760;52.480;13.422;2024-01-07T08:31:39;0.10;99.90
3492;DHT22;1760;52.480;13.422;2024-01-07T08:34:07;0.20;99.90
3492;DHT22;1760;52.480;13.422;2024-01-07T08:36:34;0.20;99.90
3492;DHT22;1760;52.480;13.422;2024-01-07T08:39:01;0.20;99.90
3492;DHT22;1760;52.480;13.422;2024-01-07T08:41:28;0.20;99.90
3492;DHT22;1760;52.480;13.422;2024-01-07T08:43:56;0.20;99.90
3492;DHT22;1760;52.480;13.422;2024-01-07T08:46:25;0.20;99.90
3492;DHT22;1760;52.480;13.422;2024-01-07T08:48:52;0.20;99.90
3492;DHT22;1760;52.480;13.422;2024-01-07T08:51:18;0.30;99.90
3492;DHT22;1760;52.480;13.422;2024-01-07T08:53:46;0.30;99.90
3492;DHT22;1760;52.480;13.422;2024-01-07T08:56:13;0.40;99.90
3492;DHT22;1760;52.480;13.422;2024-01-07T08:58:40;0.40;99.90
3492;DHT22;1760;52.480;13.422;2024-01-07T09:01:09;0.40;99.90
3492;DHT22;1760;52.480;13.422;2024-01-07T09:03:35;0.50;99.90
3492;DHT22;1760;52.480;13.422;2024-01-07T09:06:02;0.50;99.90
3492;DHT22;1760;52.480;13.422;2024-01-07T09:08:29;0.60;99.90
3492;DHT22;1760;52.480;13.422;2024-01-07T09:10:57;0.60;99.90
3492;DHT22;1760;52.480;13.422;2024-01-07T09:13:26;0.60;99.90
3492;DHT22;1760;52.480;13.422;2024-01-07T09:15:53;0.60;99.90
3492;DHT22;1760;52.480;13.422;2024-01-07T09:18:21;0.80;99.90
3492;DHT22;1760;52.480;13.422;2024-01-07T09:20:48;0.70;99.90
3492;DHT22;1760;52.480;13.422;2024-01-07T09:23:14;0.70;99.90
3492;DHT22;1760;52.480;13.422;2024-01-07T09:25:41;0.70;99.90
3492;DHT22;1760;52.480;13.422;2024-01-07T09:28:08;0.80;99.90
3492;DHT22;1760;52.480;13.422;2024-01-07T09:30:35;0.80;99.90
3492;DHT22;1760;52.480;13.422;2024-01-07T09:33:02;0.90;99.90
3492;DHT22;1760;52.480;13.422;2024-01-07T09:35:30;0.90;99.90
3492;DHT22;1760;52.480;13.422;2024-01-07T09:37:57;0.90;99.90
3492;DHT22;1760;52.480;13.422;2024-01-07T09:40:26;1.00;99.90
3492;DHT22;1760;52.480;13.422;2024-01-07T09:42:53;1.10;99.90
3492;DHT22;1760;52.480;13.422;2024-01-07T09:45:21;1.10;99.90
3492;DHT22;1760;52.480;13.422;2024-01-07T09:47:49;1.00;99.90
3492;DHT22;1760;52.480;13.422;2024-01-07T09:50:16;1.10;99.90
3492;DHT22;1760;52.480;13.422;2024-01-07T09:52:44;1.00;99.90
3492;DHT22;1760;52.480;13.422;2024-01-07T09:55:15;1.00;99.90
3492;DHT22;1760;52.480;13.422;2024-01-07T09:57:48;1.10;99.90
3492;DHT22;1760;52.480;13.422;2024-01-07T10:00:15;1.00;99.90
3492;DHT22;1760;52.480;13.422;2024-01-07T10:02:43;1.00;99.90
3492;DHT22;1760;52.480;13.422;2024-01-07T10:05:10;1.00;99.90
3492;DHT22;1760;52.480;13.422;2024-01-07T10:07:36;1.00;99.90
3492;DHT22;1760;52.480;13.422;2024-01-07T10:10:15;1.00;99.90
3492;DHT22;1760;52.480;13.422;2024-01-07T10:12:44;0.90;99.90
3492;DHT22;1760;52.480;13.422;2024-01-07T10:15:10;0.90;99.90
3492;DHT22;1760;52.480;13.422;2024-01-07T10:17:37;1.00;99.90
3492;DHT22;1760;52.480;13.422;2024-01-07T10:20:06;1.00;99.90
3492;DHT22;1760;52.480;13.422;2024-01-07T10:22:35;1.00;99.90
3492;DHT22;1760;52.480;13.422;2024-01-07T10:25:03;1.00;99.90
3492;DHT22;1760;52.480;13.422;2024-01-07T10:27:33;0.90;99.90
3492;DHT22;1760;52.480;13.422;2024-01-07T10:30:01;0.90;99.90
3492;DHT22;1760;52.480;13.422;2024-01-07T10:32:28;1.00;99.90
3492;DHT22;1760;52.480;13.422;2024-01-07T10:35:00;1.00;99.90
3492;DHT22;1760;52.480;13.422;2024-01-07T10:37:28;1.00;99.90
3492;DHT22;1760;52.480;13.422;2024-01-07T10:39:57;1.00;99.90
3492;DHT22;1760;52.480;13.422;2024-01-07T10:42:31;1.00;99.90
3492;DHT22;1760;52.480;13.422;2024-01-07T10:44:59;1.00;99.90
3492;DHT22;1760;52.480;13.422;2024-01-07T10:47:29;1.00;99.90
3492;DHT22;1760;52.480;13.422;2024-01-07T10:49:57;0.90;99.90
3492;DHT22;1760;52.480;13.422;2024-01-07T10:52:27;1.00;99.90
3492;DHT22;1760;52.480;13.422;2024-01-07T10:54:56;1.00;99.90
3492;DHT22;1760;52.480;13.422;2024-01-07T10:57:34;1.10;99.90
3492;DHT22;1760;52.480;13.422;2024-01-07T11:00:03;1.20;99.90
3492;DHT22;1760;52.480;13.422;2024-01-07T11:02:37;1.20;99.90
3492;DHT22;1760;52.480;13.422;2024-01-07T11:05:15;1.20;99.90
3492;DHT22;1760;52.480;13.422;2024-01-07T11:07:49;1.20;99.90
3492;DHT22;1760;52.480;13.422;2024-01-07T11:10:22;1.20;99.90
3492;DHT22;1760;52.480;13.422;2024-01-07T11:12:53;1.20;99.90
3492;DHT22;1760;52.480;13.422;2024-01-07T11:15:51;1.20;99.90
3492;DHT22;1760;52.480;13.422;2024-01-07T11:18:19;1.30;99.90
3492;DHT22;1760;52.480;13.422;2024-01-07T11:20:46;1.20;99.90
3492;DHT22;1760;52.480;13.422;2024-01-07T11:23:31;1.30;99.90
3492;DHT22;1760;52.480;13.422;2024-01-07T11:25:59;1.30;99.90
3492;DHT22;1760;52.480;13.422;2024-01-07T11:28:46;1.30;99.90
3492;DHT22;1760;52.480;13.422;2024-01-07T11:31:15;1.30;99.90
3492;DHT22;1760;52.480;13.422;2024-01-07T11:33:43;1.30;99.90
3492;DHT22;1760;52.480;13.422;2024-01-07T11:36:11;1.40;99.90
3492;DHT22;1760;52.480;13.422;2024-01-07T11:38:42;1.40;99.90
3492;DHT22;1760;52.480;13.422;2024-01-07T11:41:11;1.40;99.90
3492;DHT22;1760;52.480;13.422;2024-01-07T11:43:38;1.40;99.90
3492;DHT22;1760;52.480;13.422;2024-01-07T11:46:05;1.40;99.90
3492;DHT22;1760;52.480;13.422;2024-01-07T11:48:33;1.40;99.90
3492;DHT22;1760;52.480;13.422;2024-01-07T11:51:00;1.90;99.90
3492;DHT22;1760;52.480;13.422;2024-01-07T11:53:27;2.90;99.90
3492;DHT22;1760;52.480;13.422;2024-01-07T11:55:54;2.60;99.90
3492;DHT22;1760;52.480;13.422;2024-01-07T11:58:21;2.30;99.90
3492;DHT22;1760;52.480;13.422;2024-01-07T12:00:48;2.10;99.90
3492;DHT22;1760;52.480;13.422;2024-01-07T12:03:15;2.00;99.90
3492;DHT22;1760;52.480;13.422;2024-01-07T12:05:46;1.80;99.90
3492;DHT22;1760;52.480;13.422;2024-01-07T12:08:14;1.70;99.90
3492;DHT22;1760;52.480;13.422;2024-01-07T12:10:41;1.70;99.90
3492;DHT22;1760;52.480;13.422;2024-01-07T12:13:12;1.70;99.90
3492;DHT22;1760;52.480;13.422;2024-01-07T12:15:39;1.60;99.90
3492;DHT22;1760;52.480;13.422;2024-01-07T12:18:06;1.60;99.90
3492;DHT22;1760;52.480;13.422;2024-01-07T12:20:33;1.60;99.90
3492;DHT22;1760;52.480;13.422;2024-01-07T12:23:07;1.50;99.90
3492;DHT22;1760;52.480;13.422;2024-01-07T12:25:34;1.50;99.90
3492;DHT22;1760;52.480;13.422;2024-01-07T12:28:01;1.50;99.90
3492;DHT22;1760;52.480;13.422;2024-01-07T12:30:28;1.50;99.90
3492;DHT22;1760;52.480;13.422;2024-01-07T12:32:59;1.40;99.90
3492;DHT22;1760;52.480;13.422;2024-01-07T12:35:26;1.50;99.90
3492;DHT22;1760;52.480;13.422;2024-01-07T12:37:53;1.50;99.90
3492;DHT22;1760;52.480;13.422;2024-01-07T12:40:23;1.50;99.90
3492;DHT22;1760;52.480;13.422;2024-01-07T12:42:50;1.50;99.90
3492;DHT22;1760;52.480;13.422;2024-01-07T12:45:20;1.50;99.90
3492;DHT22;1760;52.480;13.422;2024-01-07T12:47:47;1.50;99.90
3492;DHT22;1760;52.480;13.422;2024-01-07T12:50:13;1.50;99.90
3492;DHT22;1760;52.480;13.422;2024-01-07T12:52:41;1.50;99.90
3492;DHT22;1760;52.480;13.422;2024-01-07T12:55:08;1.50;99.90
3492;DHT22;1760;52.480;13.422;2024-01-07T12:57:36;1.50;99.90
3492;DHT22;1760;52.480;13.422;2024-01-07T13:00:04;1.50;99.90
3492;DHT22;1760;52.480;13.422;2024-01-07T13:02:32;1.50;99.90
3492;DHT22;1760;52.480;13.422;2024-01-07T13:05:00;1.50;99.90
3492;DHT22;1760;52.480;13.422;2024-01-07T13:07:28;1.50;99.90
3492;DHT22;1760;52.480;13.422;2024-01-07T13:09:55;1.50;99.90
3492;DHT22;1760;52.480;13.422;2024-01-07T13:12:22;1.50;99.90
3492;DHT22;1760;52.480;13.422;2024-01-07T13:14:50;1.50;99.90
3492;DHT22;1760;52.480;13.422;2024-01-07T13:17:17;1.50;99.90
3492;DHT22;1760;52.480;13.422;2024-01-07T13:19:44;1.60;99.90
3492;DHT22;1760;52.480;13.422;2024-01-07T13:22:11;1.50;99.90
3492;DHT22;1760;52.480;13.422;2024-01-07T13:24:39;1.50;99.90
3492;DHT22;1760;52.480;13.422;2024-01-07T13:27:06;1.50;99.90
3492;DHT22;1760;52.480;13.422;2024-01-07T13:29:33;1.60;99.90
3492;DHT22;1760;52.480;13.422;2024-01-07T13:32:02;1.60;99.90
3492;DHT22;1760;52.480;13.422;2024-01-07T13:34:29;1.60;99.90
3492;DHT22;1760;52.480;13.422;2024-01-07T13:36:56;1.70;99.90
3492;DHT22;1760;52.480;13.422;2024-01-07T13:39:24;1.70;99.90
3492;DHT22;1760;52.480;13.422;2024-01-07T13:41:51;1.70;99.90
3492;DHT22;1760;52.480;13.422;2024-01-07T13:44:18;1.70;99.90
3492;DHT22;1760;52.480;13.422;2024-01-07T13:46:48;1.60;99.90
3492;DHT22;1760;52.480;13.422;2024-01-07T13:49:19;1.60;99.90
3492;DHT22;1760;52.480;13.422;2024-01-07T13:51:46;1.60;99.90
3492;DHT22;1760;52.480;13.422;2024-01-07T13:54:12;1.70;99.90
3492;DHT22;1760;52.480;13.422;2024-01-07T13:56:40;1.60;99.90
3492;DHT22;1760;52.480;13.422;2024-01-07T13:59:08;1.70;99.90
3492;DHT22;1760;52.480;13.422;2024-01-07T14:01:35;1.70;99.90
3492;DHT22;1760;52.480;13.422;2024-01-07T14:04:02;1.70;99.90
3492;DHT22;1760;52.480;13.422;2024-01-07T14:06:30;1.70;99.90
3492;DHT22;1760;52.480;13.422;2024-01-07T14:08:58;1.70;99.90
3492;DHT22;1760;52.480;13.422;2024-01-07T14:11:25;1.70;99.90
3492;DHT22;1760;52.480;13.422;2024-01-07T14:13:55;1.70;99.90
3492;DHT22;1760;52.480;13.422;2024-01-07T14:16:22;1.70;99.90
3492;DHT22;1760;52.480;13.422;2024-01-07T14:18:54;1.70;99.90
3492;DHT22;1760;52.480;13.422;2024-01-07T14:21:21;1.70;99.90
3492;DHT22;1760;52.480;13.422;2024-01-07T14:23:49;1.70;99.90
3492;DHT22;1760;52.480;13.422;2024-01-07T14:26:17;1.70;99.90
3492;DHT22;1760;52.480;13.422;2024-01-07T14:28:48;1.80;99.90
3492;DHT22;1760;52.480;13.422;2024-01-07T14:31:15;1.80;99.90
3492;DHT22;1760;52.480;13.422;2024-01-07T14:33:41;1.80;99.90
3492;DHT22;1760;52.480;13.422;2024-01-07T14:36:08;1.70;99.90
3492;DHT22;1760;52.480;13.422;2024-01-07T14:38:42;1.80;99.90
3492;DHT22;1760;52.480;13.422;2024-01-07T14:41:10;1.80;99.90
3492;DHT22;1760;52.480;13.422;2024-01-07T14:43:37;1.80;99.90
3492;DHT22;1760;52.480;13.422;2024-01-07T14:46:07;1.80;99.90
3492;DHT22;1760;52.480;13.422;2024-01-07T14:48:34;1.80;99.90
3492;DHT22;1760;52.480;13.422;2024-01-07T14:51:01;1.80;99.90
3492;DHT22;1760;52.480;13.422;2024-01-07T14:53:28;1.80;99.90
3492;DHT22;1760;52.480;13.422;2024-01-07T14:56:00;1.80;99.90
3492;DHT22;1760;52.480;13.422;2024-01-07T14:58:28;1.80;99.90
3492;DHT22;1760;52.480;13.422;2024-01-07T15:00:55;1.80;99.90
3492;DHT22;1760;52.480;13.422;2024-01-07T15:03:24;1.80;99.90
3492;DHT22;1760;52.480;13.422;2024-01-07T15:05:51;1.90;99.90
3492;DHT22;1760;52.480;13.422;2024-01-07T15:08:18;1.90;99.90
3492;DHT22;1760;52.480;13.422;2024-01-07T15:10:44;1.80;99.90
3492;DHT22;1760;52.480;13.422;2024-01-07T15:13:11;1.90;99.90
3492;DHT22;1760;52.480;13.422;2024-01-07T15:15:40;1.80;99.90
3492;DHT22;1760;52.480;13.422;2024-01-07T15:18:07;1.80;99.90
3492;DHT22;1760;52.480;13.422;2024-01-07T15:20:33;1.90;99.90
3492;DHT22;1760;52.480;13.422;2024-01-07T15:23:00;1.80;99.90
3492;DHT22;1760;52.480;13.422;2024-01-07T15:25:28;1.90;99.90
3492;DHT22;1760;52.480;13.422;2024-01-07T15:27:55;1.80;99.90
3492;DHT22;1760;52.480;13.422;2024-01-07T15:30:22;1.70;99.90
3492;DHT22;1760;52.480;13.422;2024-01-07T15:32:50;1.70;99.90
3492;DHT22;1760;52.480;13.422;2024-01-07T15:35:17;1.70;99.90
3492;DHT22;1760;52.480;13.422;2024-01-07T15:37:43;1.70;99.90
3492;DHT22;1760;52.480;13.422;2024-01-07T15:40:11;1.70;99.90
3492;DHT22;1760;52.480;13.422;2024-01-07T15:42:39;1.70;99.90
3492;DHT22;1760;52.480;13.422;2024-01-07T15:45:07;1.70;99.90
3492;DHT22;1760;52.480;13.422;2024-01-07T15:47:35;1.70;99.90
3492;DHT22;1760;52.480;13.422;2024-01-07T15:50:03;1.70;99.90
3492;DHT22;1760;52.480;13.422;2024-01-07T15:52:30;1.70;99.90
3492;DHT22;1760;52.480;13.422;2024-01-07T15:54:58;1.70;99.90
3492;DHT22;1760;52.480;13.422;2024-01-07T15:57:25;1.70;99.90
3492;DHT22;1760;52.480;13.422;2024-01-07T15:59:52;1.70;99.90